sensor_id;sensor_type;location;lat;lon;timestamp;temperature;humidity
324;DHT22;149;51.094;17.002;2024-03-08T00:00:24;0.80;99.90
324;DHT22;149;51.094;17.002;2024-03-08T00:02:52;1.00;99.90
324;DHT22;149;51.094;17.002;2024-03-08T00:05:24;1.00;99.90
324;DHT22;149;51.094;17.002;2024-03-08T00:07:51;1.00;99.90
324;DHT22;149;51.094;17.002;2024-03-08T00:10:20;0.90;99.90
324;DHT22;149;51.094;17.002;2024-03-08T00:12:51;0.70;99.90
324;DHT22;149;51.094;17.002;2024-03-08T00:15:20;0.80;99.90
324;DHT22;149;51.094;17.002;2024-03-08T00:17:49;0.80;99.90
324;DHT22;149;51.094;17.002;2024-03-08T00:20:17;0.80;99.90
324;DHT22;149;51.094;17.002;2024-03-08T00:22:47;0.70;99.90
324;DHT22;149;51.094;17.002;2024-03-08T00:25:14;0.70;99.90
324;DHT22;149;51.094;17.002;2024-03-08T00:27:41;0.70;99.90
324;DHT22;149;51.094;17.002;2024-03-08T00:30:09;0.60;99.90
324;DHT22;149;51.094;17.002;2024-03-08T00:32:41;0.50;99.90
324;DHT22;149;51.094;17.002;2024-03-08T00:35:09;0.70;99.90
324;DHT22;149;51.094;17.002;2024-03-08T00:37:37;0.70;99.90
324;DHT22;149;51.094;17.002;2024-03-08T00:40:04;0.60;99.90
324;DHT22;149;51.094;17.002;2024-03-08T00:42:36;0.70;99.90
324;DHT22;149;51.094;17.002;2024-03-08T00:45:06;0.60;99.90
324;DHT22;149;51.094;17.002;2024-03-08T00:47:36;0.50;99.90
324;DHT22;149;51.094;17.002;2024-03-08T00:50:12;0.50;99.90
324;DHT22;149;51.094;17.002;2024-03-08T00:52:40;0.40;99.90
324;DHT22;149;51.094;17.002;2024-03-08T00:55:07;0.40;99.90
324;DHT22;149;51.094;17.002;2024-03-08T00:57:39;0.40;99.90
324;DHT22;149;51.094;17.002;2024-03-08T01:00:10;0.50;99.90
324;DHT22;149;51.094;17.002;2024-03-08T01:02:41;0.40;99.90
324;DHT22;149;51.094;17.002;2024-03-08T01:05:08;0.40;99.90
324;DHT22;149;51.094;17.002;2024-03-08T01:07:37;0.40;99.90
324;DHT22;149;51.094;17.002;2024-03-08T01:10:05;0.30;99.90
324;DHT22;149;51.094;17.002;2024-03-08T01:12:41;0.30;99.90
324;DHT22;149;51.094;17.002;2024-03-08T01:15:10;0.50;99.90
324;DHT22;149;51.094;17.002;2024-03-08T01:17:38;0.30;99.90
324;DHT22;149;51.094;17.002;2024-03-08T01:20:06;0.40;99.90
324;DHT22;149;51.094;17.002;2024-03-08T01:22:33;0.30;99.90
324;DHT22;149;51.094;17.002;2024-03-08T01:25:01;0.30;99.90
324;DHT22;149;51.094;17.002;2024-03-08T01:27:32;0.10;99.90
324;DHT22;149;51.094;17.002;2024-03-08T01:29:59;0.00;99.90
324;DHT22;149;51.094;17.002;2024-03-08T01:32:27;0.00;99.90
324;DHT22;149;51.094;17.002;2024-03-08T01:34:58;-0.10;99.90
324;DHT22;149;51.094;17.002;2024-03-08T01:37:26;-0.20;99.90
324;DHT22;149;51.094;17.002;2024-03-08T01:39:54;-0.10;99.90
324;DHT22;149;51.094;17.002;2024-03-08T01:42:26;-0.10;99.90
324;DHT22;149;51.094;17.002;2024-03-08T01:44:55;-0.20;99.90
324;DHT22;149;51.094;17.002;2024-03-08T01:47:22;-0.20;99.90
324;DHT22;149;51.094;17.002;2024-03-08T01:49:52;-0.20;99.90
324;DHT22;149;51.094;17.002;2024-03-08T01:52:20;0.00;99.90
324;DHT22;149;51.094;17.002;2024-03-08T01:54:49;-0.20;99.90
324;DHT22;149;51.094;17.002;2024-03-08T01:57:16;-0.30;99.90
324;DHT22;149;51.094;17.002;2024-03-08T01:59:43;-0.20;99.90
324;DHT22;149;51.094;17.002;2024-03-08T02:02:11;-0.20;99.90
324;DHT22;149;51.094;17.002;2024-03-08T02:04:40;-0.20;99.90
324;DHT22;149;51.094;17.002;2024-03-08T02:07:08;-0.20;99.90
324;DHT22;149;51.094;17.002;2024-03-08T02:09:36;-0.30;99.90
324;DHT22;149;51.094;17.002;2024-03-08T02:12:04;-0.30;99.90
324;DHT22;149;51.094;17.002;2024-03-08T02:14:32;-0.20;99.90
324;DHT22;149;51.094;17.002;2024-03-08T02:17:02;-0.30;99.90
324;DHT22;149;51.094;17.002;2024-03-08T02:19:29;-0.40;99.90
324;DHT22;149;51.094;17.002;2024-03-08T02:21:57;-0.40;99.90
324;DHT22;149;51.094;17.002;2024-03-08T02:24:25;-0.40;99.90
324;DHT22;149;51.094;17.002;2024-03-08T02:26:53;-0.40;99.90
324;DHT22;149;51.094;17.002;2024-03-08T02:29:20;-0.40;99.90
324;DHT22;149;51.094;17.002;2024-03-08T02:31:52;-0.10;99.90
324;DHT22;149;51.094;17.002;2024-03-08T02:34:19;-0.20;99.90
324;DHT22;149;51.094;17.002;2024-03-08T02:36:46;-0.30;99.90
324;DHT22;149;51.094;17.002;2024-03-08T02:39:13;-0.40;99.90
324;DHT22;149;51.094;17.002;2024-03-08T02:41:41;-0.20;99.90
324;DHT22;149;51.094;17.002;2024-03-08T02:44:10;-0.20;99.90
324;DHT22;149;51.094;17.002;2024-03-08T02:46:39;-0.40;99.90
324;DHT22;149;51.094;17.002;2024-03-08T02:49:07;-0.50;99.90
324;DHT22;149;51.094;17.002;2024-03-08T02:51:36;-0.40;99.90
324;DHT22;149;51.094;17.002;2024-03-08T02:54:03;-0.40;99.90
324;DHT22;149;51.094;17.002;2024-03-08T02:56:33;-0.50;99.90
324;DHT22;149;51.094;17.002;2024-03-08T02:59:02;-0.60;99.90
324;DHT22;149;51.094;17.002;2024-03-08T03:01:29;-0.60;99.90
324;DHT22;149;51.094;17.002;2024-03-08T03:03:56;-0.60;99.90
324;DHT22;149;51.094;17.002;2024-03-08T03:06:24;-0.70;99.90
324;DHT22;149;51.094;17.002;2024-03-08T03:08:52;-0.80;99.90
324;DHT22;149;51.094;17.002;2024-03-08T03:11:23;-0.70;99.90
324;DHT22;149;51.094;17.002;2024-03-08T03:13:50;-0.70;99.90
324;DHT22;149;51.094;17.002;2024-03-08T03:16:21;-0.80;99.90
324;DHT22;149;51.094;17.002;2024-03-08T03:18:49;-0.90;99.90
324;DHT22;149;51.094;17.002;2024-03-08T03:21:16;-0.90;99.90
324;DHT22;149;51.094;17.002;2024-03-08T03:23:44;-1.00;99.90
324;DHT22;149;51.094;17.002;2024-03-08T03:26:11;-0.90;99.90
324;DHT22;149;51.094;17.002;2024-03-08T03:28:39;-1.00;99.90
324;DHT22;149;51.094;17.002;2024-03-08T03:31:07;-1.00;99.90
324;DHT22;149;51.094;17.002;2024-03-08T03:33:36;-1.00;99.90
324;DHT22;149;51.094;17.002;2024-03-08T03:36:07;-1.10;99.90
324;DHT22;149;51.094;17.002;2024-03-08T03:38:38;-1.10;99.90
324;DHT22;149;51.094;17.002;2024-03-08T03:41:07;-1.10;99.90
324;DHT22;149;51.094;17.002;2024-03-08T03:43:37;-1.20;99.90
324;DHT22;149;51.094;17.002;2024-03-08T03:46:06;-1.20;99.90
324;DHT22;149;51.094;17.002;2024-03-08T03:48:34;-1.30;99.90
324;DHT22;149;51.094;17.002;2024-03-08T03:51:01;-1.10;99.90
324;DHT22;149;51.094;17.002;2024-03-08T03:53:28;-1.40;99.90
324;DHT22;149;51.094;17.002;2024-03-08T03:55:55;-1.30;99.90
324;DHT22;149;51.094;17.002;2024-03-08T03:58:23;-1.30;99.90
324;DHT22;149;51.094;17.002;2024-03-08T04:00:49;-1.30;99.90
324;DHT22;149;51.094;17.002;2024-03-08T04:03:16;-1.30;99.90
324;DHT22;149;51.094;17.002;2024-03-08T04:05:46;-1.40;99.90
324;DHT22;149;51.094;17.002;2024-03-08T04:08:13;-1.40;99.90
324;DHT22;149;51.094;17.002;2024-03-08T04:10:41;-1.30;99.90
324;DHT22;149;51.094;17.002;2024-03-08T04:13:08;-1.40;99.90
324;DHT22;149;51.094;17.002;2024-03-08T04:15:36;-1.40;99.90
324;DHT22;149;51.094;17.002;2024-03-08T04:18:04;-1.60;99.90
324;DHT22;149;51.094;17.002;2024-03-08T04:20:32;-1.50;99.90
324;DHT22;149;51.094;17.002;2024-03-08T04:23:06;-1.50;99.90
324;DHT22;149;51.094;17.002;2024-03-08T04:25:36;-1.60;99.90
324;DHT22;149;51.094;17.002;2024-03-08T04:28:08;-1.60;99.90
324;DHT22;149;51.094;17.002;2024-03-08T04:30:41;-1.60;99.90
324;DHT22;149;51.094;17.002;2024-03-08T04:33:08;-1.60;99.90
324;DHT22;149;51.094;17.002;2024-03-08T04:35:36;-1.60;99.90
324;DHT22;149;51.094;17.002;2024-03-08T04:38:03;-1.60;99.90
324;DHT22;149;51.094;17.002;2024-03-08T04:40:33;-1.70;99.90
324;DHT22;149;51.094;17.002;2024-03-08T04:43:00;-1.60;99.90
324;DHT22;149;51.094;17.002;2024-03-08T04:45:27;-1.70;99.90
324;DHT22;149;51.094;17.002;2024-03-08T04:47:57;-1.70;99.90
324;DHT22;149;51.094;17.002;2024-03-08T04:50:26;-1.70;99.90
324;DHT22;149;51.094;17.002;2024-03-08T04:52:57;-1.70;99.90
324;DHT22;149;51.094;17.002;2024-03-08T04:55:25;-1.70;99.90
324;DHT22;149;51.094;17.002;2024-03-08T04:57:52;-1.80;99.90
324;DHT22;149;51.094;17.002;2024-03-08T05:00:19;-1.80;99.90
324;DHT22;149;51.094;17.002;2024-03-08T05:02:48;-1.70;99.90
324;DHT22;149;51.094;17.002;2024-03-08T05:05:20;-1.70;99.90
324;DHT22;149;51.094;17.002;2024-03-08T05:07:48;-1.80;99.90
324;DHT22;149;51.094;17.002;2024-03-08T05:10:16;-1.90;99.90
324;DHT22;149;51.094;17.002;2024-03-08T05:12:45;-1.80;99.90
324;DHT22;149;51.094;17.002;2024-03-08T05:15:12;-1.80;99.90
324;DHT22;149;51.094;17.002;2024-03-08T05:17:39;-1.80;99.90
324;DHT22;149;51.094;17.002;2024-03-08T05:20:07;-1.80;99.90
324;DHT22;149;51.094;17.002;2024-03-08T05:22:34;-1.80;99.90
324;DHT22;149;51.094;17.002;2024-03-08T05:25:02;-1.80;99.90
324;DHT22;149;51.094;17.002;2024-03-08T05:27:29;-1.80;99.90
324;DHT22;149;51.094;17.002;2024-03-08T05:29:56;-1.90;99.90
324;DHT22;149;51.094;17.002;2024-03-08T05:32:23;-1.90;99.90
324;DHT22;149;51.094;17.002;2024-03-08T05:34:53;-1.90;99.90
324;DHT22;149;51.094;17.002;2024-03-08T05:37:21;-1.80;99.90
324;DHT22;149;51.094;17.002;2024-03-08T05:39:49;-1.80;99.90
324;DHT22;149;51.094;17.002;2024-03-08T05:42:16;-1.80;99.90
324;DHT22;149;51.094;17.002;2024-03-08T05:44:43;-1.70;99.90
324;DHT22;149;51.094;17.002;2024-03-08T05:47:11;-1.70;99.90
324;DHT22;149;51.094;17.002;2024-03-08T05:49:38;-1.70;99.90
324;DHT22;149;51.094;17.002;2024-03-08T05:52:06;-1.70;99.90
324;DHT22;149;51.094;17.002;2024-03-08T05:54:33;-1.60;99.90
324;DHT22;149;51.094;17.002;2024-03-08T05:57:01;-1.60;99.90
324;DHT22;149;51.094;17.002;2024-03-08T05:59:29;-1.60;99.90
324;DHT22;149;51.094;17.002;2024-03-08T06:01:56;-1.60;99.90
324;DHT22;149;51.094;17.002;2024-03-08T06:04:23;-1.60;99.90
324;DHT22;149;51.094;17.002;2024-03-08T06:06:51;-1.50;99.90
324;DHT22;149;51.094;17.002;2024-03-08T06:09:22;-1.50;99.90
324;DHT22;149;51.094;17.002;2024-03-08T06:11:54;-1.40;99.90
324;DHT22;149;51.094;17.002;2024-03-08T06:14:22;-1.30;99.90
324;DHT22;149;51.094;17.002;2024-03-08T06:16:50;-1.30;99.90
324;DHT22;149;51.094;17.002;2024-03-08T06:19:17;-1.30;99.90
324;DHT22;149;51.094;17.002;2024-03-08T06:21:44;-1.30;99.90
324;DHT22;149;51.094;17.002;2024-03-08T06:24:12;-1.20;99.90
324;DHT22;149;51.094;17.002;2024-03-08T06:26:39;-1.20;99.90
324;DHT22;149;51.094;17.002;2024-03-08T06:29:06;-0.60;99.90
324;DHT22;149;51.094;17.002;2024-03-08T06:31:33;-0.10;99.90
324;DHT22;149;51.094;17.002;2024-03-08T06:34:01;-0.10;99.90
324;DHT22;149;51.094;17.002;2024-03-08T06:36:31;0.30;99.90
324;DHT22;149;51.094;17.002;2024-03-08T06:38:58;0.90;99.90
324;DHT22;149;51.094;17.002;2024-03-08T06:41:25;0.80;99.90
324;DHT22;149;51.094;17.002;2024-03-08T06:43:53;0.70;99.90
324;DHT22;149;51.094;17.002;2024-03-08T06:46:24;1.00;99.90
324;DHT22;149;51.094;17.002;2024-03-08T06:48:51;1.40;99.90
324;DHT22;149;51.094;17.002;2024-03-08T06:51:19;1.90;99.90
324;DHT22;149;51.094;17.002;2024-03-08T06:53:47;1.50;99.90
324;DHT22;149;51.094;17.002;2024-03-08T06:56:16;0.80;99.90
324;DHT22;149;51.094;17.002;2024-03-08T06:58:43;0.50;99.90
324;DHT22;149;51.094;17.002;2024-03-08T07:01:10;0.50;99.90
324;DHT22;149;51.094;17.002;2024-03-08T07:03:44;0.30;99.90
324;DHT22;149;51.094;17.002;2024-03-08T07:06:11;0.60;99.90
324;DHT22;149;51.094;17.002;2024-03-08T07:08:38;0.70;99.90
324;DHT22;149;51.094;17.002;2024-03-08T07:11:06;2.10;99.90
324;DHT22;149;51.094;17.002;2024-03-08T07:13:34;3.00;99.90
324;DHT22;149;51.094;17.002;2024-03-08T07:16:00;1.90;99.90
324;DHT22;149;51.094;17.002;2024-03-08T07:18:28;1.70;99.90
324;DHT22;149;51.094;17.002;2024-03-08T07:20:57;1.40;99.90
324;DHT22;149;51.094;17.002;2024-03-08T07:23:25;1.40;99.90
324;DHT22;149;51.094;17.002;2024-03-08T07:26:16;1.10;99.90
324;DHT22;149;51.094;17.002;2024-03-08T07:28:45;1.30;99.90
324;DHT22;149;51.094;17.002;2024-03-08T07:31:13;1.70;99.90
324;DHT22;149;51.094;17.002;2024-03-08T07:33:50;1.50;99.90
324;DHT22;149;51.094;17.002;2024-03-08T07:36:18;2.80;99.90
324;DHT22;149;51.094;17.002;2024-03-08T07:38:49;3.40;99.90
324;DHT22;149;51.094;17.002;2024-03-08T07:41:22;3.90;99.90
324;DHT22;149;51.094;17.002;2024-03-08T07:43:52;4.80;99.90
324;DHT22;149;51.094;17.002;2024-03-08T07:46:27;5.70;99.90
324;DHT22;149;51.094;17.002;2024-03-08T07:49:08;6.50;99.90
324;DHT22;149;51.094;17.002;2024-03-08T07:51:39;6.90;99.90
324;DHT22;149;51.094;17.002;2024-03-08T07:54:07;6.20;99.90
324;DHT22;149;51.094;17.002;2024-03-08T07:56:38;6.90;99.90
324;DHT22;149;51.094;17.002;2024-03-08T07:59:06;6.40;99.90
324;DHT22;149;51.094;17.002;2024-03-08T08:01:33;6.70;99.90
324;DHT22;149;51.094;17.002;2024-03-08T08:04:00;7.80;99.90
324;DHT22;149;51.094;17.002;2024-03-08T08:06:30;8.50;99.90
324;DHT22;149;51.094;17.002;2024-03-08T08:08:59;8.80;95.70
324;DHT22;149;51.094;17.002;2024-03-08T08:11:27;7.60;97.20
324;DHT22;149;51.094;17.002;2024-03-08T08:13:55;7.50;99.90
324;DHT22;149;51.094;17.002;2024-03-08T08:16:25;7.80;99.90
324;DHT22;149;51.094;17.002;2024-03-08T08:18:52;8.50;97.80
324;DHT22;149;51.094;17.002;2024-03-08T08:21:19;7.20;99.90
324;DHT22;149;51.094;17.002;2024-03-08T08:23:48;7.50;99.90
324;DHT22;149;51.094;17.002;2024-03-08T08:26:15;6.70;99.90
324;DHT22;149;51.094;17.002;2024-03-08T08:28:43;7.00;99.90
324;DHT22;149;51.094;17.002;2024-03-08T08:31:13;8.20;99.90
324;DHT22;149;51.094;17.002;2024-03-08T08:33:40;6.70;99.90
324;DHT22;149;51.094;17.002;2024-03-08T08:36:07;6.80;99.90
324;DHT22;149;51.094;17.002;2024-03-08T08:38:34;6.80;99.90
324;DHT22;149;51.094;17.002;2024-03-08T08:41:01;6.70;99.90
324;DHT22;149;51.094;17.002;2024-03-08T08:43:29;7.30;99.90
324;DHT22;149;51.094;17.002;2024-03-08T08:45:57;7.00;99.90
324;DHT22;149;51.094;17.002;2024-03-08T08:48:24;6.20;99.90
324;DHT22;149;51.094;17.002;2024-03-08T08:50:51;5.70;99.90
324;DHT22;149;51.094;17.002;2024-03-08T08:53:19;5.50;99.90
324;DHT22;149;51.094;17.002;2024-03-08T08:55:45;4.80;99.90
324;DHT22;149;51.094;17.002;2024-03-08T08:58:13;4.80;99.90
324;DHT22;149;51.094;17.002;2024-03-08T09:00:40;4.70;99.90
324;DHT22;149;51.094;17.002;2024-03-08T09:03:07;5.30;99.90
324;DHT22;149;51.094;17.002;2024-03-08T09:05:34;5.30;99.90
324;DHT22;149;51.094;17.002;2024-03-08T09:08:05;5.60;99.90
324;DHT22;149;51.094;17.002;2024-03-08T09:10:32;5.40;99.90
324;DHT22;149;51.094;17.002;2024-03-08T09:13:00;5.90;99.90
324;DHT22;149;51.094;17.002;2024-03-08T09:15:31;6.00;99.90
324;DHT22;149;51.094;17.002;2024-03-08T09:17:58;5.70;99.90
324;DHT22;149;51.094;17.002;2024-03-08T09:20:26;5.30;99.90
324;DHT22;149;51.094;17.002;2024-03-08T09:22:53;5.30;99.90
324;DHT22;149;51.094;17.002;2024-03-08T09:25:23;6.20;99.90
324;DHT22;149;51.094;17.002;2024-03-08T09:27:50;6.80;99.90
324;DHT22;149;51.094;17.002;2024-03-08T09:30:17;6.80;99.90
324;DHT22;149;51.094;17.002;2024-03-08T09:32:44;7.00;99.90
324;DHT22;149;51.094;17.002;2024-03-08T09:35:11;6.40;99.90
324;DHT22;149;51.094;17.002;2024-03-08T09:37:39;5.80;99.90
324;DHT22;149;51.094;17.002;2024-03-08T09:40:06;5.50;99.90
324;DHT22;149;51.094;17.002;2024-03-08T09:42:37;5.10;99.90
324;DHT22;149;51.094;17.002;2024-03-08T09:45:11;4.60;99.90
324;DHT22;149;51.094;17.002;2024-03-08T09:47:41;4.80;99.90
324;DHT22;149;51.094;17.002;2024-03-08T09:50:08;4.70;99.90
324;DHT22;149;51.094;17.002;2024-03-08T09:52:39;5.00;99.90
324;DHT22;149;51.094;17.002;2024-03-08T09:55:07;5.00;99.90
324;DHT22;149;51.094;17.002;2024-03-08T09:57:39;5.30;99.90
324;DHT22;149;51.094;17.002;2024-03-08T10:00:07;5.00;99.90
324;DHT22;149;51.094;17.002;2024-03-08T10:03:01;5.20;99.90
324;DHT22;149;51.094;17.002;2024-03-08T10:05:30;5.70;99.90
324;DHT22;149;51.094;17.002;2024-03-08T10:07:58;5.60;99.90
324;DHT22;149;51.094;17.002;2024-03-08T10:10:25;5.30;99.90
324;DHT22;149;51.094;17.002;2024-03-08T10:12:53;5.10;99.90
324;DHT22;149;51.094;17.002;2024-03-08T10:15:20;5.00;99.90
324;DHT22;149;51.094;17.002;2024-03-08T10:17:47;5.10;99.90
324;DHT22;149;51.094;17.002;2024-03-08T10:20:18;5.30;99.90
324;DHT22;149;51.094;17.002;2024-03-08T10:22:45;5.60;99.90
324;DHT22;149;51.094;17.002;2024-03-08T10:25:32;5.30;99.90
324;DHT22;149;51.094;17.002;2024-03-08T10:28:00;5.10;99.90
324;DHT22;149;51.094;17.002;2024-03-08T10:30:27;4.80;99.90
324;DHT22;149;51.094;17.002;2024-03-08T10:32:54;5.30;99.90
324;DHT22;149;51.094;17.002;2024-03-08T10:35:21;5.60;99.90
324;DHT22;149;51.094;17.002;2024-03-08T10:37:50;5.50;99.90
324;DHT22;149;51.094;17.002;2024-03-08T10:40:27;5.10;99.90
324;DHT22;149;51.094;17.002;2024-03-08T10:42:59;4.90;99.90
324;DHT22;149;51.094;17.002;2024-03-08T10:45:39;4.90;99.90
324;DHT22;149;51.094;17.002;2024-03-08T10:50:45;5.30;99.90
324;DHT22;149;51.094;17.002;2024-03-08T10:53:14;5.40;99.90
324;DHT22;149;51.094;17.002;2024-03-08T10:55:42;5.10;99.90
324;DHT22;149;51.094;17.002;2024-03-08T10:58:10;5.20;99.90
324;DHT22;149;51.094;17.002;2024-03-08T11:00:38;5.40;99.90
324;DHT22;149;51.094;17.002;2024-03-08T11:03:05;5.70;99.90
324;DHT22;149;51.094;17.002;2024-03-08T11:05:38;5.80;99.90
324;DHT22;149;51.094;17.002;2024-03-08T11:08:20;5.60;99.90
324;DHT22;149;51.094;17.002;2024-03-08T11:10:51;5.20;99.90
324;DHT22;149;51.094;17.002;2024-03-08T11:13:43;5.50;99.90
324;DHT22;149;51.094;17.002;2024-03-08T11:21:37;5.50;99.90
324;DHT22;149;51.094;17.002;2024-03-08T11:24:13;5.50;99.90
324;DHT22;149;51.094;17.002;2024-03-08T11:26:40;5.50;99.90
324;DHT22;149;51.094;17.002;2024-03-08T11:29:43;5.60;99.90
324;DHT22;149;51.094;17.002;2024-03-08T11:32:15;5.70;98.50
324;DHT22;149;51.094;17.002;2024-03-08T11:34:46;5.50;99.70
324;DHT22;149;51.094;17.002;2024-03-08T11:37:16;5.80;96.70
324;DHT22;149;51.094;17.002;2024-03-08T11:42:16;5.80;96.20
324;DHT22;149;51.094;17.002;2024-03-08T11:44:47;5.90;96.90
324;DHT22;149;51.094;17.002;2024-03-08T11:47:15;6.40;97.90
324;DHT22;149;51.094;17.002;2024-03-08T11:49:44;6.20;98.00
324;DHT22;149;51.094;17.002;2024-03-08T11:52:17;6.30;98.30
324;DHT22;149;51.094;17.002;2024-03-08T11:54:52;6.30;95.90
324;DHT22;149;51.094;17.002;2024-03-08T11:57:24;6.20;95.10
324;DHT22;149;51.094;17.002;2024-03-08T11:59:53;6.30;93.70
324;DHT22;149;51.094;17.002;2024-03-08T12:02:25;6.30;93.20
324;DHT22;149;51.094;17.002;2024-03-08T12:04:57;6.20;93.00
324;DHT22;149;51.094;17.002;2024-03-08T12:07:30;6.50;93.00
324;DHT22;149;51.094;17.002;2024-03-08T12:10:17;6.30;93.80
324;DHT22;149;51.094;17.002;2024-03-08T12:12:48;6.50;93.60
324;DHT22;149;51.094;17.002;2024-03-08T12:15:20;6.50;93.30
324;DHT22;149;51.094;17.002;2024-03-08T12:17:51;6.50;93.60
324;DHT22;149;51.094;17.002;2024-03-08T12:20:26;6.40;92.70
324;DHT22;149;51.094;17.002;2024-03-08T12:23:01;6.30;92.60
324;DHT22;149;51.094;17.002;2024-03-08T12:25:35;6.50;93.30
324;DHT22;149;51.094;17.002;2024-03-08T12:28:12;6.50;94.30
324;DHT22;149;51.094;17.002;2024-03-08T12:30:48;6.60;94.30
324;DHT22;149;51.094;17.002;2024-03-08T12:33:17;6.50;93.60
324;DHT22;149;51.094;17.002;2024-03-08T12:35:54;6.40;93.00
324;DHT22;149;51.094;17.002;2024-03-08T12:38:27;6.30;93.50
324;DHT22;149;51.094;17.002;2024-03-08T12:40:59;6.30;94.10
324;DHT22;149;51.094;17.002;2024-03-08T12:43:29;6.50;93.70
324;DHT22;149;51.094;17.002;2024-03-08T12:46:01;6.30;94.30
324;DHT22;149;51.094;17.002;2024-03-08T12:48:37;6.50;95.20
324;DHT22;149;51.094;17.002;2024-03-08T12:51:08;6.80;94.30
324;DHT22;149;51.094;17.002;2024-03-08T12:53:37;6.50;93.70
324;DHT22;149;51.094;17.002;2024-03-08T12:56:38;6.60;94.30
324;DHT22;149;51.094;17.002;2024-03-08T12:59:09;6.50;93.40
324;DHT22;149;51.094;17.002;2024-03-08T13:01:40;6.40;93.20
324;DHT22;149;51.094;17.002;2024-03-08T13:04:09;6.50;93.00
324;DHT22;149;51.094;17.002;2024-03-08T13:06:44;6.40;93.00
324;DHT22;149;51.094;17.002;2024-03-08T13:09:18;6.60;93.10
324;DHT22;149;51.094;17.002;2024-03-08T13:11:51;6.60;93.00
324;DHT22;149;51.094;17.002;2024-03-08T13:14:22;6.50;92.40
324;DHT22;149;51.094;17.002;2024-03-08T13:16:52;6.40;92.70
324;DHT22;149;51.094;17.002;2024-03-08T13:19:19;6.60;93.10
324;DHT22;149;51.094;17.002;2024-03-08T13:21:53;6.60;92.50
324;DHT22;149;51.094;17.002;2024-03-08T13:24:26;6.60;92.70
324;DHT22;149;51.094;17.002;2024-03-08T13:26:55;6.70;92.70
324;DHT22;149;51.094;17.002;2024-03-08T13:29:23;6.70;92.50
324;DHT22;149;51.094;17.002;2024-03-08T13:31:55;6.80;93.30
324;DHT22;149;51.094;17.002;2024-03-08T13:34:27;7.00;93.60
324;DHT22;149;51.094;17.002;2024-03-08T13:36:59;7.00;93.40
324;DHT22;149;51.094;17.002;2024-03-08T13:39:28;6.90;93.70
324;DHT22;149;51.094;17.002;2024-03-08T13:42:14;6.70;92.70
324;DHT22;149;51.094;17.002;2024-03-08T13:44:43;6.70;93.40
324;DHT22;149;51.094;17.002;2024-03-08T13:47:16;6.80;93.90
324;DHT22;149;51.094;17.002;2024-03-08T13:49:47;6.60;93.70
324;DHT22;149;51.094;17.002;2024-03-08T13:52:23;6.60;93.50
324;DHT22;149;51.094;17.002;2024-03-08T13:54:53;6.80;93.50
324;DHT22;149;51.094;17.002;2024-03-08T13:57:21;6.80;93.70
324;DHT22;149;51.094;17.002;2024-03-08T14:00:01;6.70;93.60
324;DHT22;149;51.094;17.002;2024-03-08T14:02:33;6.60;93.70
324;DHT22;149;51.094;17.002;2024-03-08T14:05:00;6.80;93.60
324;DHT22;149;51.094;17.002;2024-03-08T14:07:29;7.00;94.10
324;DHT22;149;51.094;17.002;2024-03-08T14:10:01;7.00;93.80
324;DHT22;149;51.094;17.002;2024-03-08T14:12:29;6.90;93.70
324;DHT22;149;51.094;17.002;2024-03-08T14:15:22;6.90;94.10
324;DHT22;149;51.094;17.002;2024-03-08T14:17:58;7.00;94.70
324;DHT22;149;51.094;17.002;2024-03-08T14:20:28;7.00;95.40
324;DHT22;149;51.094;17.002;2024-03-08T14:23:20;6.90;94.20
324;DHT22;149;51.094;17.002;2024-03-08T14:25:49;6.80;94.30
324;DHT22;149;51.094;17.002;2024-03-08T14:28:34;6.80;95.10
324;DHT22;149;51.094;17.002;2024-03-08T14:31:03;6.90;94.60
324;DHT22;149;51.094;17.002;2024-03-08T14:33:46;6.80;94.60
324;DHT22;149;51.094;17.002;2024-03-08T14:36:19;6.70;95.00
324;DHT22;149;51.094;17.002;2024-03-08T14:38:52;6.80;94.80
324;DHT22;149;51.094;17.002;2024-03-08T14:41:28;6.80;94.90
324;DHT22;149;51.094;17.002;2024-03-08T14:44:05;6.80;95.30
324;DHT22;149;51.094;17.002;2024-03-08T14:46:36;6.80;95.20
324;DHT22;149;51.094;17.002;2024-03-08T14:49:11;6.80;95.40
324;DHT22;149;51.094;17.002;2024-03-08T14:52:12;6.80;95.70
324;DHT22;149;51.094;17.002;2024-03-08T14:54:56;6.70;95.70
324;DHT22;149;51.094;17.002;2024-03-08T14:57:25;6.80;95.60
324;DHT22;149;51.094;17.002;2024-03-08T14:59:55;6.90;96.80
324;DHT22;149;51.094;17.002;2024-03-08T15:02:22;6.80;96.60
324;DHT22;149;51.094;17.002;2024-03-08T15:04:50;6.70;96.10
324;DHT22;149;51.094;17.002;2024-03-08T15:07:26;6.60;96.70
324;DHT22;149;51.094;17.002;2024-03-08T15:09:56;6.70;96.90
324;DHT22;149;51.094;17.002;2024-03-08T15:12:24;6.50;96.70
324;DHT22;149;51.094;17.002;2024-03-08T15:14:56;6.60;96.80
324;DHT22;149;51.094;17.002;2024-03-08T15:17:30;6.60;96.70
324;DHT22;149;51.094;17.002;2024-03-08T15:20:00;6.70;97.30
324;DHT22;149;51.094;17.002;2024-03-08T15:22:27;6.60;97.50
324;DHT22;149;51.094;17.002;2024-03-08T15:24:55;6.60;98.70
324;DHT22;149;51.094;17.002;2024-03-08T15:27:27;6.60;99.90
324;DHT22;149;51.094;17.002;2024-03-08T15:29:55;6.50;99.90
324;DHT22;149;51.094;17.002;2024-03-08T15:32:23;6.60;99.90
324;DHT22;149;51.094;17.002;2024-03-08T15:34:53;6.60;99.90
324;DHT22;149;51.094;17.002;2024-03-08T15:37:26;6.50;99.90
324;DHT22;149;51.094;17.002;2024-03-08T15:39:54;6.40;99.90
324;DHT22;149;51.094;17.002;2024-03-08T15:42:22;6.50;99.90
324;DHT22;149;51.094;17.002;2024-03-08T15:44:50;6.40;99.90
324;DHT22;149;51.094;17.002;2024-03-08T15:47:21;6.40;99.90
324;DHT22;149;51.094;17.002;2024-03-08T15:49:49;6.20;99.90
324;DHT22;149;51.094;17.002;2024-03-08T15:52:16;6.10;99.90
324;DHT22;149;51.094;17.002;2024-03-08T15:54:44;6.30;99.90
324;DHT22;149;51.094;17.002;2024-03-08T15:57:13;6.10;99.90
324;DHT22;149;51.094;17.002;2024-03-08T15:59:56;5.90;99.90
324;DHT22;149;51.094;17.002;2024-03-08T16:02:29;5.80;99.90
324;DHT22;149;51.094;17.002;2024-03-08T16:05:00;5.80;99.90
324;DHT22;149;51.094;17.002;2024-03-08T16:07:28;6.00;99.90
324;DHT22;149;51.094;17.002;2024-03-08T16:09:56;5.80;99.90
324;DHT22;149;51.094;17.002;2024-03-08T16:12:25;5.80;99.90
324;DHT22;149;51.094;17.002;2024-03-08T16:14:52;5.70;99.90
324;DHT22;149;51.094;17.002;2024-03-08T16:17:21;5.60;99.90
324;DHT22;149;51.094;17.002;2024-03-08T16:19:48;5.50;99.90
324;DHT22;149;51.094;17.002;2024-03-08T16:22:21;5.40;99.90
324;DHT22;149;51.094;17.002;2024-03-08T16:24:48;5.30;99.90
324;DHT22;149;51.094;17.002;2024-03-08T16:27:17;5.10;99.90
324;DHT22;149;51.094;17.002;2024-03-08T16:29:46;5.30;99.90
324;DHT22;149;51.094;17.002;2024-03-08T16:32:19;5.10;99.90
324;DHT22;149;51.094;17.002;2024-03-08T16:34:47;5.10;99.90
324;DHT22;149;51.094;17.002;2024-03-08T16:37:20;5.10;99.90
324;DHT22;149;51.094;17.002;2024-03-08T16:39:57;4.90;99.90
324;DHT22;149;51.094;17.002;2024-03-08T16:42:26;4.80;99.90
324;DHT22;149;51.094;17.002;2024-03-08T16:44:53;4.80;99.90
324;DHT22;149;51.094;17.002;2024-03-08T16:47:20;4.70;99.90
324;DHT22;149;51.094;17.002;2024-03-08T16:49:50;4.50;99.90
324;DHT22;149;51.094;17.002;2024-03-08T16:52:23;4.60;99.90
324;DHT22;149;51.094;17.002;2024-03-08T16:54:50;4.50;99.90
324;DHT22;149;51.094;17.002;2024-03-08T16:57:30;4.60;99.90